createdAt,value
2022-11-29T00:00:09.365Z,72.49
2022-11-29T00:03:03.191Z,72.70
2022-11-29T00:05:35.844Z,72.52
2022-11-29T00:08:05.964Z,72.80
2022-11-29T00:10:41.172Z,72.81
2022-11-29T00:13:10.936Z,72.88
2022-11-29T00:15:40.686Z,72.92
2022-11-29T00:18:10.425Z,72.78
2022-11-29T00:20:40.673Z,72.53
2022-11-29T00:23:10.294Z,72.32
2022-11-29T00:25:40.177Z,72.84
2022-11-29T00:28:09.830Z,73.03
2022-11-29T00:30:39.892Z,73.06
2022-11-29T00:33:09.574Z,73.17
2022-11-29T00:35:39.299Z,73.32
2022-11-29T00:38:08.716Z,73.25
2022-11-29T00:40:38.477Z,73.11
2022-11-29T00:43:08.425Z,72.91
2022-11-29T00:45:37.558Z,72.83
2022-11-29T00:48:07.412Z,72.78
2022-11-29T00:50:37.224Z,72.90
2022-11-29T00:53:07.124Z,72.80
2022-11-29T00:55:36.912Z,73.07
2022-11-29T00:58:05.455Z,72.91
2022-11-29T01:00:34.755Z,72.74
2022-11-29T01:03:04.811Z,72.74
2022-11-29T01:05:34.954Z,72.95
2022-11-29T01:08:03.863Z,72.91
2022-11-29T01:10:33.007Z,72.76
2022-11-29T01:13:03.222Z,72.78
2022-11-29T01:15:33.627Z,72.88
2022-11-29T01:18:03.423Z,72.68
2022-11-29T01:20:33.161Z,73.20
2022-11-29T01:23:03.209Z,72.74
2022-11-29T01:25:32.966Z,72.75
2022-11-29T01:28:02.616Z,72.87
2022-11-29T01:30:32.612Z,72.90
2022-11-29T01:33:02.722Z,72.72
2022-11-29T01:35:32.407Z,72.62
2022-11-29T01:38:00.913Z,72.80
2022-11-29T01:40:30.637Z,72.73
2022-11-29T01:43:00.328Z,72.51
2022-11-29T01:45:29.637Z,72.67
2022-11-29T01:47:59.345Z,72.96
2022-11-29T01:50:29.075Z,72.70
2022-11-29T01:52:59.313Z,73.05
2022-11-29T01:55:31.772Z,72.71
2022-11-29T01:58:01.842Z,73.02
2022-11-29T02:00:31.705Z,72.75
2022-11-29T02:03:10.652Z,72.74
2022-11-29T02:05:49.428Z,72.21
2022-11-29T02:08:31.005Z,72.77
2022-11-29T02:11:14.565Z,72.63
2022-11-29T02:14:00.252Z,72.43
2022-11-29T02:16:58.034Z,72.36
2022-11-29T02:19:56.030Z,72.61
2022-11-29T02:22:40.523Z,72.64
2022-11-29T02:25:38.451Z,72.67
2022-11-29T02:28:13.838Z,72.65
2022-11-29T02:30:56.844Z,72.54
2022-11-29T02:34:13.353Z,72.36
2022-11-29T02:37:13.871Z,72.07
2022-11-29T02:40:14.129Z,72.81
2022-11-29T02:43:13.193Z,72.88
2022-11-29T02:46:04.117Z,72.95
2022-11-29T02:49:08.574Z,73.05
2022-11-29T02:52:08.719Z,72.12
2022-11-29T02:54:49.775Z,72.73
2022-11-29T02:58:10.773Z,72.43
2022-11-29T03:00:52.726Z,72.41
2022-11-29T03:03:29.023Z,72.44
2022-11-29T03:06:41.002Z,72.63
2022-11-29T03:09:11.640Z,72.47
2022-11-29T03:11:51.195Z,72.64
2022-11-29T03:14:32.051Z,72.71
2022-11-29T03:17:09.907Z,73.09
2022-11-29T03:19:52.852Z,72.38
2022-11-29T03:22:59.798Z,72.56
2022-11-29T03:25:52.302Z,72.55
2022-11-29T03:28:29.853Z,72.76
2022-11-29T03:30:59.757Z,72.70
2022-11-29T03:33:56.916Z,72.42
2022-11-29T03:36:52.029Z,72.64
2022-11-29T03:39:45.034Z,72.81
2022-11-29T03:42:29.725Z,72.60
2022-11-29T03:45:20.108Z,72.51
2022-11-29T03:47:57.399Z,72.28
2022-11-29T03:50:54.910Z,72.02
2022-11-29T03:53:50.515Z,72.13
2022-11-29T03:56:32.365Z,72.67
2022-11-29T03:59:15.169Z,72.44
2022-11-29T04:02:28.879Z,72.19
2022-11-29T04:05:26.896Z,71.83
2022-11-29T04:08:21.542Z,72.03
2022-11-29T04:11:09.471Z,71.77
2022-11-29T04:13:53.361Z,72.45
2022-11-29T04:16:32.454Z,72.48
2022-11-29T04:19:45.166Z,72.39
2022-11-29T04:22:42.964Z,72.00
2022-11-29T04:25:30.920Z,72.05
2022-11-29T04:28:18.967Z,72.24
2022-11-29T04:31:18.178Z,72.02
2022-11-29T04:34:26.012Z,72.26
2022-11-29T04:37:13.089Z,71.94
2022-11-29T04:40:00.208Z,71.48
2022-11-29T04:42:51.815Z,71.83
2022-11-29T04:46:06.530Z,71.85
2022-11-29T04:48:51.292Z,72.77
2022-11-29T04:51:40.242Z,71.94
2022-11-29T04:54:35.889Z,72.15
2022-11-29T04:57:15.340Z,71.97
2022-11-29T05:00:16.039Z,71.79
2022-11-29T05:03:22.707Z,71.55
2022-11-29T05:06:05.231Z,71.56
2022-11-29T05:09:10.411Z,71.80
2022-11-29T05:12:28.629Z,71.68
2022-11-29T05:15:39.816Z,71.65
2022-11-29T05:18:54.654Z,71.91
2022-11-29T05:22:00.725Z,71.81
2022-11-29T05:24:42.636Z,71.73
2022-11-29T05:27:23.971Z,71.59
2022-11-29T05:30:08.480Z,71.57
2022-11-29T05:32:55.069Z,71.62
2022-11-29T05:35:53.842Z,71.06
2022-11-29T05:38:58.487Z,71.16
2022-11-29T05:41:57.227Z,71.80
2022-11-29T05:44:36.283Z,71.57
2022-11-29T05:47:10.449Z,71.25
2022-11-29T05:50:06.511Z,71.56
2022-11-29T05:52:47.595Z,71.66
2022-11-29T05:55:41.787Z,71.55
2022-11-29T05:58:38.677Z,71.50
2022-11-29T06:01:19.851Z,71.72
2022-11-29T06:04:22.752Z,71.56
2022-11-29T06:07:12.484Z,71.59
2022-11-29T06:09:51.921Z,71.88
2022-11-29T06:12:23.856Z,71.31
2022-11-29T06:15:20.223Z,71.42
2022-11-29T06:18:31.971Z,71.70
2022-11-29T06:21:24.951Z,72.52
2022-11-29T06:24:01.757Z,71.96
2022-11-29T06:26:48.779Z,72.56
2022-11-29T06:29:40.517Z,72.14
2022-11-29T06:32:41.142Z,72.48
2022-11-29T06:35:47.212Z,72.32
2022-11-29T06:38:23.542Z,72.65
2022-11-29T06:41:00.215Z,72.63
2022-11-29T06:43:33.976Z,72.60
2022-11-29T06:46:16.558Z,72.56
2022-11-29T06:49:09.180Z,72.69
2022-11-29T06:51:52.345Z,72.76
2022-11-29T06:54:38.246Z,73.08
2022-11-29T06:57:18.425Z,73.12
2022-11-29T07:00:12.035Z,73.60
2022-11-29T07:03:11.557Z,73.37
2022-11-29T07:05:41.397Z,73.33
2022-11-29T07:08:23.598Z,73.34
2022-11-29T07:10:55.883Z,73.37
2022-11-29T07:13:26.021Z,73.19
2022-11-29T07:16:12.471Z,73.04
2022-11-29T07:19:17.190Z,73.33
2022-11-29T07:22:31.503Z,73.49
2022-11-29T07:25:29.710Z,73.74
2022-11-29T07:28:27.278Z,73.40
2022-11-29T07:31:17.937Z,73.68
2022-11-29T07:34:34.186Z,72.84
2022-11-29T07:37:36.552Z,72.71
2022-11-29T07:40:23.709Z,72.28
2022-11-29T07:43:08.274Z,74.23
2022-11-29T07:45:39.726Z,74.40
2022-11-29T07:48:13.394Z,73.74
2022-11-29T07:50:42.049Z,73.95
2022-11-29T07:53:20.635Z,72.42
2022-11-29T07:55:50.690Z,72.57
2022-11-29T07:58:19.610Z,71.87
2022-11-29T08:00:49.702Z,71.48
2022-11-29T08:03:19.390Z,71.07
2022-11-29T08:05:48.629Z,70.94
2022-11-29T08:08:17.980Z,70.70
2022-11-29T08:10:47.567Z,70.93
2022-11-29T08:13:21.143Z,70.27
2022-11-29T08:15:50.841Z,70.07
2022-11-29T08:18:19.730Z,70.30
2022-11-29T08:20:48.231Z,69.50
2022-11-29T08:23:16.695Z,69.48
2022-11-29T08:25:46.380Z,69.18
2022-11-29T08:28:16.512Z,68.72
2022-11-29T08:30:46.722Z,68.74
2022-11-29T08:33:16.522Z,68.91
2022-11-29T08:35:46.411Z,68.58
2022-11-29T08:38:15.722Z,67.68
2022-11-29T08:40:45.317Z,67.48
2022-11-29T08:43:15.353Z,67.32
2022-11-29T08:45:45.362Z,66.93
2022-11-29T08:48:15.060Z,66.58
2022-11-29T08:50:44.920Z,66.72
2022-11-29T08:53:31.995Z,66.84
2022-11-29T08:56:08.485Z,65.46
2022-11-29T08:58:51.727Z,65.23
2022-11-29T09:01:22.290Z,65.30
2022-11-29T09:04:00.567Z,64.91
2022-11-29T09:06:34.711Z,65.12
2022-11-29T09:09:03.885Z,64.66
2022-11-29T09:11:35.648Z,64.30
2022-11-29T09:14:08.001Z,64.34
2022-11-29T09:16:38.902Z,64.57
2022-11-29T09:19:08.970Z,64.63
2022-11-29T09:21:38.696Z,63.67
2022-11-29T09:24:08.301Z,63.56
2022-11-29T09:26:38.485Z,62.73
2022-11-29T09:29:09.445Z,62.63
2022-11-29T09:31:39.492Z,62.72
2022-11-29T09:34:14.126Z,62.51
2022-11-29T09:36:44.599Z,61.83
2022-11-29T09:39:13.166Z,61.46
2022-11-29T09:42:19.991Z,61.20
2022-11-29T09:45:04.362Z,61.37
2022-11-29T09:47:56.821Z,61.21
2022-11-29T09:50:43.601Z,60.58
2022-11-29T09:53:47.526Z,60.44
2022-11-29T09:56:39.028Z,60.05
2022-11-29T09:59:25.213Z,59.28
2022-11-29T10:02:15.938Z,59.55
2022-11-29T10:04:56.515Z,58.95
2022-11-29T10:07:52.128Z,58.22
2022-11-29T10:10:31.365Z,57.39
2022-11-29T10:13:30.122Z,56.91
2022-11-29T10:16:11.248Z,58.06
2022-11-29T10:19:00.752Z,56.94
2022-11-29T10:21:34.766Z,55.83
2022-11-29T10:24:13.762Z,54.51
2022-11-29T10:26:43.875Z,54.11
2022-11-29T10:29:17.199Z,53.81
2022-11-29T10:31:49.783Z,53.03
2022-11-29T10:34:21.725Z,52.00
2022-11-29T10:37:03.017Z,51.87
2022-11-29T10:39:47.466Z,50.84
2022-11-29T10:42:38.965Z,51.36
2022-11-29T10:45:30.304Z,50.74
2022-11-29T10:48:05.604Z,49.92
2022-11-29T10:50:37.889Z,49.56
2022-11-29T10:53:13.825Z,49.10
2022-11-29T10:56:01.622Z,49.17
2022-11-29T10:58:31.419Z,49.79
2022-11-29T11:01:08.020Z,49.56
2022-11-29T11:03:41.736Z,48.61
2022-11-29T11:06:22.462Z,48.75
2022-11-29T11:09:13.118Z,48.53
2022-11-29T11:11:54.620Z,48.94
2022-11-29T11:14:26.970Z,49.06
2022-11-29T11:17:22.258Z,49.39
2022-11-29T11:20:22.592Z,49.68
2022-11-29T11:23:30.202Z,48.35
2022-11-29T11:26:07.085Z,48.43
2022-11-29T11:29:02.002Z,48.21
2022-11-29T11:31:41.244Z,48.23
2022-11-29T11:34:38.601Z,48.19
2022-11-29T11:37:18.051Z,48.55
2022-11-29T11:39:51.740Z,48.30
2022-11-29T11:42:38.850Z,48.55
2022-11-29T11:45:14.184Z,49.05
2022-11-29T11:47:51.841Z,48.40
2022-11-29T11:50:31.787Z,49.48
2022-11-29T11:53:20.225Z,49.20
2022-11-29T11:56:03.269Z,48.60
2022-11-29T11:59:09.578Z,48.40
2022-11-29T12:01:39.841Z,48.11
2022-11-29T12:04:21.811Z,48.79
2022-11-29T12:07:00.841Z,49.18
2022-11-29T12:09:54.019Z,49.43
2022-11-29T12:12:29.647Z,49.38
2022-11-29T12:15:02.084Z,48.48
2022-11-29T12:17:47.927Z,49.18
2022-11-29T12:20:31.290Z,49.45
2022-11-29T12:23:16.694Z,49.68
2022-11-29T12:26:41.110Z,48.99
2022-11-29T12:29:16.653Z,49.02
2022-11-29T12:31:49.494Z,48.57
2022-11-29T12:34:35.963Z,48.65
2022-11-29T12:37:27.162Z,48.70
2022-11-29T12:40:03.698Z,48.56
2022-11-29T12:42:56.127Z,47.72
2022-11-29T12:45:48.399Z,47.03
2022-11-29T12:48:37.107Z,46.94
2022-11-29T12:51:34.263Z,46.33
2022-11-29T12:54:13.204Z,46.99
2022-11-29T12:57:04.914Z,46.97
2022-11-29T13:00:24.475Z,47.18
2022-11-29T13:03:22.026Z,47.09
2022-11-29T13:06:07.925Z,46.49
2022-11-29T13:09:04.057Z,46.44
2022-11-29T13:11:43.382Z,46.69
2022-11-29T13:14:42.819Z,47.10
2022-11-29T13:17:28.653Z,46.69
2022-11-29T13:20:26.061Z,46.79
2022-11-29T13:23:14.570Z,46.72
2022-11-29T13:25:51.002Z,46.62
2022-11-29T13:28:28.823Z,46.89
2022-11-29T13:31:13.508Z,47.11
2022-11-29T13:33:56.401Z,46.88
2022-11-29T13:36:38.284Z,46.58
2022-11-29T13:39:36.482Z,46.90
2022-11-29T13:42:59.190Z,46.74
2022-11-29T13:46:22.092Z,46.85
2022-11-29T13:48:54.084Z,47.12
2022-11-29T13:51:38.206Z,46.89
2022-11-29T13:54:25.808Z,47.32
2022-11-29T13:57:09.520Z,47.22
2022-11-29T13:59:47.105Z,47.71
2022-11-29T14:02:35.822Z,48.14
2022-11-29T14:05:08.178Z,48.62
2022-11-29T14:08:18.028Z,48.97
2022-11-29T14:10:51.092Z,49.38
2022-11-29T14:13:34.694Z,49.81
2022-11-29T14:16:07.642Z,50.24
2022-11-29T14:18:43.836Z,50.40
2022-11-29T14:21:13.613Z,50.51
2022-11-29T14:23:44.644Z,50.70
2022-11-29T14:26:13.244Z,50.93
2022-11-29T14:28:42.712Z,51.49
2022-11-29T14:31:11.435Z,51.47
2022-11-29T14:34:26.230Z,51.80
2022-11-29T14:37:08.215Z,51.93
2022-11-29T14:39:53.276Z,52.45
2022-11-29T14:42:26.952Z,52.68
2022-11-29T14:45:01.791Z,53.00
2022-11-29T14:47:48.210Z,53.40
2022-11-29T14:50:40.096Z,53.53
2022-11-29T14:53:31.209Z,53.67
2022-11-29T14:56:32.076Z,54.25
2022-11-29T14:59:38.642Z,53.92
2022-11-29T15:02:19.014Z,53.92
2022-11-29T15:04:52.097Z,54.26
2022-11-29T15:07:32.164Z,54.81
2022-11-29T15:10:14.299Z,55.10
2022-11-29T15:12:43.308Z,55.91
2022-11-29T15:15:43.947Z,56.14
2022-11-29T15:18:35.757Z,55.85
2022-11-29T15:21:33.085Z,56.27
2022-11-29T15:24:15.321Z,56.75
2022-11-29T15:27:01.721Z,57.48
2022-11-29T15:29:33.156Z,58.10
2022-11-29T15:32:06.282Z,58.80
2022-11-29T15:34:43.756Z,59.33
2022-11-29T15:37:36.886Z,59.23
2022-11-29T15:40:21.750Z,59.46
2022-11-29T15:42:58.870Z,59.68
2022-11-29T15:45:39.092Z,59.85
2022-11-29T15:48:16.324Z,60.42
2022-11-29T15:51:11.577Z,60.71
2022-11-29T15:53:49.394Z,60.80
2022-11-29T15:56:38.839Z,60.64
2022-11-29T15:59:44.896Z,61.01
2022-11-29T16:02:28.219Z,61.42
2022-11-29T16:05:04.053Z,61.82
2022-11-29T16:07:35.487Z,62.02
2022-11-29T16:10:20.326Z,62.49
2022-11-29T16:13:01.042Z,62.76
2022-11-29T16:15:39.141Z,62.91
2022-11-29T16:18:17.704Z,63.04
2022-11-29T16:21:01.255Z,62.62
2022-11-29T16:23:40.682Z,63.10
2022-11-29T16:26:23.171Z,63.09
2022-11-29T16:28:58.226Z,63.24
2022-11-29T16:31:38.578Z,63.44
2022-11-29T16:34:14.486Z,63.79
2022-11-29T16:36:44.288Z,63.61
2022-11-29T16:39:24.316Z,64.17
2022-11-29T16:42:10.290Z,63.50
2022-11-29T16:44:47.274Z,63.74
2022-11-29T16:47:23.137Z,63.67
2022-11-29T16:50:15.324Z,63.84
2022-11-29T16:52:45.348Z,63.79
2022-11-29T16:55:17.348Z,64.13
2022-11-29T16:57:48.291Z,64.15
2022-11-29T17:00:30.949Z,63.93
2022-11-29T17:03:01.105Z,64.22
2022-11-29T17:05:31.448Z,64.22
2022-11-29T17:08:01.557Z,64.49
2022-11-29T17:10:32.970Z,64.45
2022-11-29T17:13:04.850Z,64.78
2022-11-29T17:15:35.056Z,65.23
2022-11-29T17:18:05.104Z,65.00
2022-11-29T17:20:35.212Z,65.09
2022-11-29T17:23:05.035Z,65.39
2022-11-29T17:25:35.197Z,65.67
2022-11-29T17:28:05.233Z,65.65
2022-11-29T17:30:34.963Z,66.14
2022-11-29T17:33:04.433Z,66.18
2022-11-29T17:35:35.979Z,66.20
2022-11-29T17:38:05.770Z,66.41
2022-11-29T17:40:34.383Z,66.08
2022-11-29T17:43:04.193Z,66.48
2022-11-29T17:45:34.351Z,66.97
2022-11-29T17:48:04.207Z,66.94
2022-11-29T17:50:34.298Z,66.96
2022-11-29T17:53:04.395Z,66.40
2022-11-29T17:55:34.462Z,67.09
2022-11-29T17:58:04.678Z,66.86
2022-11-29T18:00:34.795Z,66.66
2022-11-29T18:03:04.820Z,67.08
2022-11-29T18:05:35.046Z,67.15
2022-11-29T18:08:06.186Z,67.12
2022-11-29T18:10:36.736Z,67.37
2022-11-29T18:13:05.234Z,67.35
2022-11-29T18:15:35.131Z,67.56
2022-11-29T18:18:05.286Z,67.68
2022-11-29T18:20:35.263Z,68.15
2022-11-29T18:23:08.070Z,67.86
2022-11-29T18:25:39.791Z,68.90
2022-11-29T18:28:11.624Z,68.75
2022-11-29T18:30:41.414Z,68.65
2022-11-29T18:33:11.148Z,68.53
2022-11-29T18:35:39.647Z,68.85
2022-11-29T18:38:16.698Z,68.74
2022-11-29T18:40:47.381Z,68.75
2022-11-29T18:43:16.457Z,68.67
2022-11-29T18:45:46.770Z,69.56
2022-11-29T18:48:16.242Z,69.55
2022-11-29T18:50:46.201Z,69.64
2022-11-29T18:53:16.289Z,69.64
2022-11-29T18:55:46.318Z,69.17
2022-11-29T18:58:16.429Z,69.70
2022-11-29T19:00:45.721Z,69.94
2022-11-29T19:03:15.723Z,70.13
2022-11-29T19:05:54.649Z,70.00
2022-11-29T19:08:25.820Z,69.92
2022-11-29T19:10:55.710Z,70.06
2022-11-29T19:13:25.389Z,70.13
2022-11-29T19:15:56.289Z,70.04
2022-11-29T19:18:25.980Z,69.75
2022-11-29T19:21:04.682Z,70.29
2022-11-29T19:23:35.001Z,70.32
2022-11-29T19:26:09.076Z,70.04
2022-11-29T19:28:40.906Z,70.34
2022-11-29T19:31:12.503Z,70.36
2022-11-29T19:33:43.996Z,70.50
2022-11-29T19:36:19.634Z,70.35
2022-11-29T19:38:53.804Z,70.00
2022-11-29T19:41:29.491Z,70.34
2022-11-29T19:44:04.685Z,70.31
2022-11-29T19:46:40.490Z,70.57
2022-11-29T19:49:11.235Z,70.68
2022-11-29T19:51:41.242Z,70.60
2022-11-29T19:54:12.196Z,70.84
2022-11-29T19:56:42.513Z,70.76
2022-11-29T19:59:12.156Z,70.78
2022-11-29T20:01:43.021Z,70.69
2022-11-29T20:04:14.216Z,70.61
2022-11-29T20:06:44.740Z,70.75
2022-11-29T20:09:14.508Z,70.77
2022-11-29T20:11:44.248Z,70.88
2022-11-29T20:14:15.035Z,70.88
2022-11-29T20:16:43.955Z,70.91
2022-11-29T20:19:16.552Z,71.26
2022-11-29T20:21:49.143Z,71.18
2022-11-29T20:24:19.932Z,71.13
2022-11-29T20:26:49.983Z,71.00
2022-11-29T20:29:21.863Z,71.01
2022-11-29T20:31:51.600Z,70.99
2022-11-29T20:34:21.935Z,70.81
2022-11-29T20:37:35.108Z,71.07
2022-11-29T20:40:15.167Z,70.83
2022-11-29T20:42:58.885Z,71.21
2022-11-29T20:45:28.996Z,71.21
2022-11-29T20:48:13.447Z,71.05
2022-11-29T20:50:45.340Z,71.12
2022-11-29T20:53:16.730Z,71.06
2022-11-29T20:55:48.482Z,71.30
2022-11-29T20:58:19.747Z,71.35
2022-11-29T21:00:49.886Z,71.38
2022-11-29T21:03:19.975Z,71.27
2022-11-29T21:05:50.836Z,71.52
2022-11-29T21:08:24.695Z,71.61
2022-11-29T21:10:55.645Z,72.06
2022-11-29T21:13:25.658Z,71.81
2022-11-29T21:15:56.093Z,71.85
2022-11-29T21:18:30.697Z,71.80
2022-11-29T21:21:29.958Z,71.46
2022-11-29T21:24:07.015Z,71.67
2022-11-29T21:26:45.148Z,71.79
2022-11-29T21:29:15.970Z,71.59
2022-11-29T21:31:47.515Z,71.54
2022-11-29T21:34:17.603Z,71.24
2022-11-29T21:36:59.214Z,71.23
2022-11-29T21:39:34.053Z,71.00
2022-11-29T21:42:03.910Z,71.23
2022-11-29T21:44:33.791Z,71.70
2022-11-29T21:47:03.490Z,71.25
2022-11-29T21:49:33.567Z,71.52
2022-11-29T21:52:03.650Z,71.35
2022-11-29T21:54:33.324Z,71.19
2022-11-29T21:57:02.613Z,71.14
2022-11-29T21:59:33.937Z,70.91
2022-11-29T22:02:02.551Z,70.98
2022-11-29T22:04:32.324Z,71.43
2022-11-29T22:07:02.034Z,71.43
2022-11-29T22:09:31.993Z,71.52
2022-11-29T22:12:14.615Z,71.40
2022-11-29T22:14:51.259Z,71.29
2022-11-29T22:17:21.268Z,71.57
2022-11-29T22:19:51.220Z,71.52
2022-11-29T22:22:21.086Z,70.97
2022-11-29T22:24:50.740Z,71.37
2022-11-29T22:27:21.328Z,71.42
2022-11-29T22:29:51.347Z,71.14
2022-11-29T22:32:21.099Z,71.40
2022-11-29T22:34:51.189Z,71.61
2022-11-29T22:37:20.768Z,71.93
2022-11-29T22:39:50.437Z,71.66
2022-11-29T22:42:19.073Z,71.87
2022-11-29T22:44:48.325Z,71.57
2022-11-29T22:47:20.197Z,71.81
2022-11-29T22:49:51.806Z,72.00
2022-11-29T22:52:22.369Z,71.75
2022-11-29T22:54:52.346Z,71.52
2022-11-29T22:57:22.051Z,71.98
2022-11-29T22:59:52.107Z,71.70
2022-11-29T23:02:21.854Z,71.91
2022-11-29T23:04:51.945Z,71.80
2022-11-29T23:07:22.014Z,71.55
2022-11-29T23:09:52.075Z,71.69
2022-11-29T23:12:21.108Z,71.96
2022-11-29T23:14:56.132Z,71.79
2022-11-29T23:17:28.027Z,71.69
2022-11-29T23:19:58.059Z,71.80
2022-11-29T23:22:28.042Z,71.80
2022-11-29T23:24:58.142Z,71.66
2022-11-29T23:27:27.600Z,71.44
2022-11-29T23:29:59.647Z,71.47
2022-11-29T23:32:30.542Z,71.38
2022-11-29T23:35:00.294Z,71.27
2022-11-29T23:37:30.230Z,71.84
2022-11-29T23:40:00.303Z,71.39
2022-11-29T23:42:30.274Z,71.98
2022-11-29T23:44:59.888Z,71.55
2022-11-29T23:47:29.684Z,71.82
2022-11-29T23:49:59.706Z,71.55
2022-11-29T23:52:29.777Z,71.26
2022-11-29T23:54:58.212Z,71.95
2022-11-29T23:57:31.272Z,71.63
